New Market, Minnesota
Current Conditions -  °F | °C
As of 7:04 AM on Monday 22 Dec 2014 (Local Time) from KLVN Reporting Station
Haze Haze  
Wind Chill: 28°   Ceiling: 600
Heat Index: 36°   Visibility: 4mi
Dew Point: 34°   Wind: 12mph
Humidity: 93%   Direction: 140°SE
Pressure: 29.66"   Gusts: 17mph
Location:  44.57°N, 93.35°W
Report Text: KLVN 221304Z AUTO 14010G15KT 4SM BR OVC006 02/01 A2966 RMK AO2
Loading
Personal Weather Stations






























Interactive Weather Map New forecast layout! Learn more

10-Day Weather Forecast

Advertisements
Track Severe Weather on mobile